Time;durP1;ratioP1;P1;durP2;ratioP2;P2;SDS_P1;SDS_P2;PMS_P1;PMS_P2;Temp;Humidity;BMP_temperature;BMP_pressure;BME280_temperature;BME280_humidity;BME280_pressure;Samples;Min_cycle;Max_cycle;Signal;HPM_P1;HPM_P2
2021/03/24 00:00:27;;;;;;;;;;;23.80;36.00;;;;;;1548355;74;1111;-59
2021/03/24 00:02:29;;;;;;;;;;;23.70;36.10;;;;;;1560153;74;1216;-59
2021/03/24 00:04:31;;;;;;;;;;;23.80;36.20;;;;;;1559314;74;775;-58
2021/03/24 00:06:33;;;;;;;;;;;23.80;36.00;;;;;;1556333;74;744;-58
2021/03/24 00:08:35;;;;;;;;;;;23.80;36.00;;;;;;1552368;74;747;-57
2021/03/24 00:10:37;;;;;;;;;;;23.80;36.00;;;;;;1552541;75;782;-58
2021/03/24 00:12:39;;;;;;;;;;;23.70;36.00;;;;;;1554731;75;1164;-58
2021/03/24 00:14:40;;;;;;;;;;;23.70;36.10;;;;;;1558235;75;656;-58
2021/03/24 00:16:42;;;;;;;;;;;23.70;36.30;;;;;;1551078;76;1972;-59
2021/03/24 00:18:44;;;;;;;;;;;23.70;36.40;;;;;;1561382;74;768;-57
2021/03/24 00:20:46;;;;;;;;;;;23.80;36.20;;;;;;1561593;74;764;-59
2021/03/24 00:22:48;;;;;;;;;;;23.80;36.10;;;;;;1564459;74;1168;-59
2021/03/24 00:24:50;;;;;;;;;;;23.80;36.00;;;;;;1555141;75;748;-59
2021/03/24 00:26:52;;;;;;;;;;;23.80;35.90;;;;;;1560661;76;752;-59
2021/03/24 00:28:54;;;;;;;;;;;23.80;35.90;;;;;;1563514;76;768;-59
2021/03/24 00:30:56;;;;;;;;;;;23.80;35.90;;;;;;1561443;76;753;-59
2021/03/24 00:32:57;;;;;;;;;;;23.90;35.90;;;;;;1564508;74;1170;-59
2021/03/24 00:34:59;;;;;;;;;;;23.90;35.90;;;;;;1554054;76;762;-57
2021/03/24 00:37:01;;;;;;;;;;;23.80;35.90;;;;;;1562475;74;1942;-58
2021/03/24 00:39:03;;;;;;;;;;;23.80;36.00;;;;;;1557887;76;812;-59
2021/03/24 00:41:06;;;;;;;;;;;23.80;36.30;;;;;;1546791;76;784;-59
2021/03/24 00:43:07;;;;;;;;;;;23.80;36.30;;;;;;1551667;75;1178;-59
2021/03/24 00:45:09;;;;;;;;;;;23.80;36.30;;;;;;1543456;74;769;-59
2021/03/24 00:47:11;;;;;;;;;;;23.80;36.20;;;;;;1542980;76;792;-59
2021/03/24 00:49:13;;;;;;;;;;;23.80;36.10;;;;;;1549921;75;800;-59
2021/03/24 00:51:15;;;;;;;;;;;23.80;36.10;;;;;;1545050;74;791;-58
2021/03/24 00:53:17;;;;;;;;;;;23.90;36.20;;;;;;1548526;74;1171;-59
2021/03/24 00:55:19;;;;;;;;;;;23.80;36.10;;;;;;1543732;74;722;-58
2021/03/24 00:57:21;;;;;;;;;;;23.90;36.20;;;;;;1555730;76;1938;-59
2021/03/24 00:59:23;;;;;;;;;;;23.90;36.20;;;;;;1547564;76;750;-57
2021/03/24 01:01:25;;;;;;;;;;;23.90;36.20;;;;;;1549873;74;763;-57
2021/03/24 01:03:27;;;;;;;;;;;23.90;36.10;;;;;;1549026;74;1161;-59
2021/03/24 01:05:28;;;;;;;;;;;23.90;36.10;;;;;;1548571;74;791;-59
2021/03/24 01:07:30;;;;;;;;;;;23.90;36.20;;;;;;1554304;75;746;-57
2021/03/24 01:09:32;;;;;;;;;;;23.90;36.20;;;;;;1547889;75;675;-59
2021/03/24 01:11:35;;;;;;;;;;;23.80;36.10;;;;;;1558108;74;1172;-59
2021/03/24 01:13:37;;;;;;;;;;;23.80;36.10;;;;;;1562107;74;670;-58
2021/03/24 01:15:38;;;;;;;;;;;23.80;36.10;;;;;;1559284;75;800;-57
2021/03/24 01:17:40;;;;;;;;;;;23.80;36.20;;;;;;1542847;75;1945;-60
2021/03/24 01:19:43;;;;;;;;;;;23.80;36.00;;;;;;1558225;75;778;-59
2021/03/24 01:21:45;;;;;;;;;;;23.80;36.00;;;;;;1551869;74;1169;-57
2021/03/24 01:23:47;;;;;;;;;;;23.80;35.80;;;;;;1553657;76;667;-58
2021/03/24 01:25:48;;;;;;;;;;;23.90;35.90;;;;;;1558737;76;749;-58
2021/03/24 01:27:50;;;;;;;;;;;23.90;35.90;;;;;;1556983;74;773;-57
2021/03/24 01:29:52;;;;;;;;;;;23.80;35.80;;;;;;1557125;76;744;-57
2021/03/24 01:31:54;;;;;;;;;;;23.80;35.90;;;;;;1553466;74;1152;-59
2021/03/24 01:33:56;;;;;;;;;;;23.80;36.00;;;;;;1553080;75;771;-58
2021/03/24 01:35:58;;;;;;;;;;;23.80;36.00;;;;;;1552925;76;1940;-59
2021/03/24 01:38:00;;;;;;;;;;;23.80;35.90;;;;;;1546162;74;788;-59
2021/03/24 01:40:03;;;;;;;;;;;23.80;35.80;;;;;;1547303;75;787;-57
2021/03/24 01:42:05;;;;;;;;;;;23.80;36.00;;;;;;1558283;74;1167;-59
2021/03/24 01:44:07;;;;;;;;;;;23.70;36.00;;;;;;1557715;75;745;-57
2021/03/24 01:46:19;;;;;;;;;;;23.70;36.20;;;;;;1559093;76;756;-59
2021/03/24 01:48:21;;;;;;;;;;;23.70;36.20;;;;;;1557272;74;796;-59
2021/03/24 01:50:24;;;;;;;;;;;23.60;36.10;;;;;;1557843;74;723;-60
2021/03/24 01:52:26;;;;;;;;;;;23.60;36.20;;;;;;1559028;74;1176;-57
2021/03/24 01:54:33;;;;;;;;;;;23.60;36.30;;;;;;1548155;75;761;-58
2021/03/24 01:56:35;;;;;;;;;;;23.70;36.50;;;;;;1553654;76;1928;-58
2021/03/24 01:58:36;;;;;;;;;;;23.70;36.40;;;;;;1559261;74;753;-58
2021/03/24 02:00:40;;;;;;;;;;;23.80;36.30;;;;;;1551511;74;769;-58
2021/03/24 02:02:42;;;;;;;;;;;23.60;36.10;;;;;;1553806;75;1250;-59
2021/03/24 02:04:44;;;;;;;;;;;23.80;36.10;;;;;;1549315;76;741;-59
2021/03/24 02:06:47;;;;;;;;;;;23.80;36.00;;;;;;1555545;74;751;-59
2021/03/24 02:08:51;;;;;;;;;;;23.90;36.00;;;;;;1550537;75;1535;-56
2021/03/24 02:10:57;;;;;;;;;;;23.90;36.00;;;;;;1557210;76;1119;-58
2021/03/24 02:13:06;;;;;;;;;;;23.90;36.00;;;;;;1557644;75;1505;-58
2021/03/24 02:15:10;;;;;;;;;;;23.90;36.00;;;;;;1554186;74;1063;-59
2021/03/24 02:17:12;;;;;;;;;;;23.80;35.90;;;;;;1554729;74;1954;-58
2021/03/24 02:19:21;;;;;;;;;;;23.80;35.90;;;;;;1560529;74;828;-58
2021/03/24 02:21:27;;;;;;;;;;;23.80;35.90;;;;;;1546551;75;1525;-59
2021/03/24 02:23:31;;;;;;;;;;;23.80;36.00;;;;;;1548656;75;1207;-59
2021/03/24 02:25:35;;;;;;;;;;;23.80;36.00;;;;;;1535653;76;757;-59
2021/03/24 02:27:37;;;;;;;;;;;23.80;36.00;;;;;;1536620;76;742;-59
2021/03/24 02:29:40;;;;;;;;;;;23.80;36.00;;;;;;1533837;76;755;-59
2021/03/24 02:31:42;;;;;;;;;;;23.90;36.00;;;;;;1537465;74;1186;-58
2021/03/24 02:33:44;;;;;;;;;;;23.90;36.00;;;;;;1544616;75;758;-59
2021/03/24 02:35:46;;;;;;;;;;;23.90;36.00;;;;;;1543394;75;774;-59
2021/03/24 02:37:48;;;;;;;;;;;23.90;35.90;;;;;;1544468;75;1937;-58
2021/03/24 02:39:50;;;;;;;;;;;23.90;35.90;;;;;;1547331;75;650;-59
2021/03/24 02:41:52;;;;;;;;;;;23.90;35.90;;;;;;1553484;75;1442;-59
2021/03/24 02:43:54;;;;;;;;;;;23.80;35.80;;;;;;1545043;75;748;-59
2021/03/24 02:45:56;;;;;;;;;;;23.80;35.90;;;;;;1551517;76;733;-59
2021/03/24 02:47:58;;;;;;;;;;;23.70;36.00;;;;;;1552458;75;804;-59
2021/03/24 02:50:00;;;;;;;;;;;23.80;36.00;;;;;;1558348;75;647;-59
2021/03/24 02:52:02;;;;;;;;;;;23.80;36.10;;;;;;1560914;74;1167;-59
2021/03/24 02:54:14;;;;;;;;;;;23.70;36.10;;;;;;1556063;74;809;-59
2021/03/24 02:56:16;;;;;;;;;;;23.70;36.20;;;;;;1554712;75;722;-58
2021/03/24 02:58:17;;;;;;;;;;;23.70;36.20;;;;;;1563073;75;1938;-60
2021/03/24 03:00:20;;;;;;;;;;;23.70;36.20;;;;;;1555257;74;822;-59
2021/03/24 03:02:22;;;;;;;;;;;23.70;36.30;;;;;;1560966;75;1270;-59
2021/03/24 03:04:26;;;;;;;;;;;23.70;36.30;;;;;;1555397;75;745;-59
2021/03/24 03:06:28;;;;;;;;;;;23.70;36.30;;;;;;1557849;75;1497;-60
2021/03/24 03:08:40;;;;;;;;;;;23.80;36.30;;;;;;1562971;75;765;-57
2021/03/24 03:10:43;;;;;;;;;;;23.80;36.10;;;;;;1553082;75;725;-60
2021/03/24 03:12:52;;;;;;;;;;;23.90;36.00;;;;;;1565694;74;1481;-60
2021/03/24 03:15:11;;;;;;;;;;;23.80;35.90;;;;;;1558828;74;739;-61
2021/03/24 03:17:14;;;;;;;;;;;23.80;35.90;;;;;;1558899;74;1949;-59
2021/03/24 03:19:24;;;;;;;;;;;23.80;35.90;;;;;;1568197;74;1394;-60
2021/03/24 03:21:27;;;;;;;;;;;23.80;36.00;;;;;;1567329;74;761;-60
2021/03/24 03:23:29;;;;;;;;;;;23.90;36.00;;;;;;1559316;74;1328;-60
2021/03/24 03:25:32;;;;;;;;;;;23.80;35.90;;;;;;1563977;74;808;-58
2021/03/24 03:27:34;;;;;;;;;;;23.70;36.10;;;;;;1562272;74;775;-59
2021/03/24 03:29:36;;;;;;;;;;;23.80;36.20;;;;;;1565747;74;756;-58
2021/03/24 03:31:37;;;;;;;;;;;23.70;36.30;;;;;;1564704;74;1167;-60
2021/03/24 03:33:40;;;;;;;;;;;23.60;36.30;;;;;;1564510;74;743;-59
2021/03/24 03:35:42;;;;;;;;;;;23.60;36.40;;;;;;1554916;74;755;-60
2021/03/24 03:37:44;;;;;;;;;;;23.60;36.40;;;;;;1565162;74;1936;-60
2021/03/24 03:39:46;;;;;;;;;;;23.50;36.50;;;;;;1565992;74;810;-59
2021/03/24 03:41:48;;;;;;;;;;;23.50;36.60;;;;;;1568882;74;1161;-60
2021/03/24 03:43:50;;;;;;;;;;;23.50;36.70;;;;;;1561361;74;768;-61
2021/03/24 03:45:52;;;;;;;;;;;23.50;36.70;;;;;;1568952;74;764;-60
2021/03/24 03:47:54;;;;;;;;;;;23.40;36.60;;;;;;1571100;74;798;-60
2021/03/24 03:49:56;;;;;;;;;;;23.50;36.80;;;;;;1567603;74;743;-60
2021/03/24 03:52:17;;;;;;;;;;;23.50;37.00;;;;;;1556239;74;1181;-60
2021/03/24 03:54:21;;;;;;;;;;;23.40;36.80;;;;;;1555833;74;759;-58
2021/03/24 03:56:24;;;;;;;;;;;23.50;37.00;;;;;;1565854;74;725;-60
2021/03/24 03:58:40;;;;;;;;;;;23.50;37.00;;;;;;1561081;74;1934;-59
2021/03/24 04:00:46;;;;;;;;;;;23.50;37.10;;;;;;1564619;74;670;-59
2021/03/24 04:02:50;;;;;;;;;;;23.40;36.90;;;;;;1570590;74;1240;-59
2021/03/24 04:04:56;;;;;;;;;;;23.40;36.90;;;;;;1562379;74;736;-59
2021/03/24 04:07:00;;;;;;;;;;;23.40;36.90;;;;;;1564646;74;789;-59
2021/03/24 04:09:01;;;;;;;;;;;23.40;36.90;;;;;;1572933;74;704;-60
2021/03/24 04:11:07;;;;;;;;;;;23.40;37.00;;;;;;1570104;74;682;-59
2021/03/24 04:13:09;;;;;;;;;;;23.40;36.90;;;;;;1574484;74;1133;-60
2021/03/24 04:15:12;;;;;;;;;;;23.40;37.00;;;;;;1562455;74;644;-59
2021/03/24 04:17:17;;;;;;;;;;;23.40;36.90;;;;;;1566227;74;1948;-60
2021/03/24 04:19:20;;;;;;;;;;;23.40;36.90;;;;;;1560441;74;776;-60
2021/03/24 04:21:22;;;;;;;;;;;23.50;36.70;;;;;;1562635;74;755;-60
2021/03/24 04:23:25;;;;;;;;;;;23.40;36.60;;;;;;1561569;74;1178;-60
2021/03/24 04:25:29;;;;;;;;;;;23.40;36.60;;;;;;1557964;74;793;-61
2021/03/24 04:27:32;;;;;;;;;;;23.40;36.60;;;;;;1561043;74;752;-60
2021/03/24 04:29:38;;;;;;;;;;;23.50;36.70;;;;;;1557062;74;770;-58
2021/03/24 04:31:41;;;;;;;;;;;23.50;36.90;;;;;;1563332;74;1479;-59
2021/03/24 04:33:43;;;;;;;;;;;23.50;37.00;;;;;;1559010;74;749;-58
2021/03/24 04:35:45;;;;;;;;;;;23.50;37.00;;;;;;1560192;74;803;-59
2021/03/24 04:37:48;;;;;;;;;;;23.50;37.10;;;;;;1560048;74;1952;-59
2021/03/24 04:39:52;;;;;;;;;;;23.50;37.10;;;;;;1564399;74;727;-59
2021/03/24 04:41:53;;;;;;;;;;;23.50;37.10;;;;;;1564843;74;1477;-59
2021/03/24 04:44:02;;;;;;;;;;;23.50;37.10;;;;;;1561043;74;787;-57
2021/03/24 04:46:08;;;;;;;;;;;23.40;36.90;;;;;;1535807;75;760;-59
2021/03/24 04:48:11;;;;;;;;;;;23.50;37.20;;;;;;1558205;74;1217;-58
2021/03/24 04:50:21;;;;;;;;;;;23.40;36.90;;;;;;1568356;74;1021;-59
2021/03/24 04:52:23;;;;;;;;;;;23.50;37.10;;;;;;1562633;74;1167;-58
2021/03/24 04:54:34;;;;;;;;;;;23.40;36.90;;;;;;1557848;74;805;-59
2021/03/24 04:56:36;;;;;;;;;;;23.50;37.10;;;;;;1561170;74;725;-59
2021/03/24 04:58:42;;;;;;;;;;;23.50;37.10;;;;;;1561019;74;1954;-60
2021/03/24 05:00:48;;;;;;;;;;;23.40;36.90;;;;;;1551693;74;1470;-59
2021/03/24 05:02:52;;;;;;;;;;;23.50;37.00;;;;;;1557168;74;1254;-59
2021/03/24 05:05:11;;;;;;;;;;;23.50;37.00;;;;;;1557055;74;761;-58
2021/03/24 05:07:17;;;;;;;;;;;23.40;36.90;;;;;;1552552;74;745;-58
2021/03/24 05:09:19;;;;;;;;;;;23.40;36.80;;;;;;1567515;74;780;-59
2021/03/24 05:11:24;;;;;;;;;;;23.50;36.80;;;;;;1560768;74;721;-59
2021/03/24 05:13:27;;;;;;;;;;;23.40;36.80;;;;;;1562613;74;1112;-59
2021/03/24 05:15:30;;;;;;;;;;;23.50;37.00;;;;;;1557698;74;811;-58
2021/03/24 05:17:33;;;;;;;;;;;23.50;36.90;;;;;;1559048;74;1943;-59
2021/03/24 05:19:35;;;;;;;;;;;23.50;37.20;;;;;;1555860;74;1136;-57
2021/03/24 05:21:48;;;;;;;;;;;23.50;37.10;;;;;;1564025;74;1189;-59
2021/03/24 05:23:51;;;;;;;;;;;23.50;37.10;;;;;;1556167;74;735;-59
2021/03/24 05:25:54;;;;;;;;;;;23.60;37.10;;;;;;1560355;74;1150;-59
2021/03/24 05:28:04;;;;;;;;;;;23.60;37.00;;;;;;1545661;75;997;-59
2021/03/24 05:30:08;;;;;;;;;;;23.50;37.00;;;;;;1555616;74;963;-60
2021/03/24 05:32:23;;;;;;;;;;;23.50;37.00;;;;;;1557578;74;1173;-57
2021/03/24 05:34:27;;;;;;;;;;;23.50;37.10;;;;;;1568892;74;1020;-58
2021/03/24 05:36:30;;;;;;;;;;;23.60;37.10;;;;;;1554613;74;1632;-58
2021/03/24 05:38:36;;;;;;;;;;;23.60;37.00;;;;;;1562682;74;1979;-57
2021/03/24 05:40:45;;;;;;;;;;;23.60;36.90;;;;;;1552593;74;741;-59
2021/03/24 05:42:49;;;;;;;;;;;23.60;36.90;;;;;;1504622;75;1187;-59
2021/03/24 05:45:07;;;;;;;;;;;23.50;36.80;;;;;;1562145;74;1678;-59
2021/03/24 05:47:16;;;;;;;;;;;23.50;36.80;;;;;;1552246;74;754;-60
2021/03/24 05:49:20;;;;;;;;;;;23.60;37.00;;;;;;1558849;74;837;-58
2021/03/24 05:51:29;;;;;;;;;;;23.60;36.90;;;;;;1538184;76;1021;-59
2021/03/24 05:53:38;;;;;;;;;;;23.60;36.90;;;;;;1550180;74;1209;-59
2021/03/24 05:55:45;;;;;;;;;;;23.50;37.00;;;;;;1559360;74;1516;-58
2021/03/24 05:57:48;;;;;;;;;;;23.60;36.90;;;;;;1568238;74;1929;-59
2021/03/24 05:59:57;;;;;;;;;;;23.50;36.80;;;;;;1540388;74;1362;-59
2021/03/24 06:02:04;;;;;;;;;;;23.60;36.80;;;;;;1560902;74;1220;-59
2021/03/24 06:04:07;;;;;;;;;;;23.60;36.70;;;;;;1571789;74;1729;-59
2021/03/24 06:06:14;;;;;;;;;;;23.60;36.70;;;;;;1573944;74;781;-59
2021/03/24 06:08:26;;;;;;;;;;;23.60;36.70;;;;;;1561404;74;837;-59
2021/03/24 06:10:33;;;;;;;;;;;23.60;36.60;;;;;;1567274;74;805;-59
2021/03/24 06:12:39;;;;;;;;;;;23.60;36.70;;;;;;1515472;74;1163;-59
2021/03/24 06:15:01;;;;;;;;;;;23.60;36.70;;;;;;1564490;74;671;-59
2021/03/24 06:17:10;;;;;;;;;;;23.60;36.70;;;;;;1564634;74;1202;-59
2021/03/24 06:19:13;;;;;;;;;;;23.60;36.50;;;;;;1550173;74;2040;-56
2021/03/24 06:21:17;;;;;;;;;;;23.60;36.50;;;;;;1556498;74;797;-58
2021/03/24 06:23:20;;;;;;;;;;;23.70;36.70;;;;;;1554367;74;1726;-58
2021/03/24 06:25:26;;;;;;;;;;;23.70;36.70;;;;;;1550961;74;727;-57
2021/03/24 06:27:36;;;;;;;;;;;23.70;36.70;;;;;;1549365;74;763;-57
2021/03/24 06:29:42;;;;;;;;;;;23.60;36.50;;;;;;1561836;74;604;-57
2021/03/24 06:32:01;;;;;;;;;;;23.70;36.90;;;;;;1566609;74;1170;-58
2021/03/24 06:34:19;;;;;;;;;;;23.70;37.00;;;;;;1568566;74;743;-58
2021/03/24 06:36:23;;;;;;;;;;;23.70;36.70;;;;;;1561184;74;765;-59
2021/03/24 06:38:43;;;;;;;;;;;23.70;36.00;;;;;;1561134;74;1943;-59
2021/03/24 06:40:52;;;;;;;;;;;23.70;36.10;;;;;;1563022;74;751;-59
2021/03/24 06:43:12;;;;;;;;;;;23.80;36.00;;;;;;1562616;74;1165;-58
2021/03/24 06:45:15;;;;;;;;;;;23.70;35.90;;;;;;1565303;74;782;-59
2021/03/24 06:47:24;;;;;;;;;;;23.70;35.90;;;;;;1564457;74;714;-60
2021/03/24 06:49:37;;;;;;;;;;;23.70;35.90;;;;;;1564150;74;784;-59
2021/03/24 06:51:56;;;;;;;;;;;23.70;35.80;;;;;;1518345;77;1260;-58
2021/03/24 06:54:09;;;;;;;;;;;23.70;35.70;;;;;;1565434;74;841;-59
2021/03/24 06:56:12;;;;;;;;;;;23.80;35.60;;;;;;1563394;74;755;-60
2021/03/24 06:58:28;;;;;;;;;;;23.80;35.20;;;;;;1562950;74;1935;-59
2021/03/24 07:00:34;;;;;;;;;;;23.80;35.20;;;;;;1569210;74;694;-59
2021/03/24 07:02:44;;;;;;;;;;;23.80;35.00;;;;;;1564613;74;1796;-59
2021/03/24 07:04:56;;;;;;;;;;;23.80;34.80;;;;;;1565753;74;797;-59
2021/03/24 07:07:18;;;;;;;;;;;23.70;34.70;;;;;;1556122;74;754;-59
2021/03/24 07:09:21;;;;;;;;;;;23.70;34.50;;;;;;1551021;74;684;-59
2021/03/24 07:11:25;;;;;;;;;;;23.80;34.40;;;;;;1564814;74;730;-57
2021/03/24 07:13:28;;;;;;;;;;;23.90;34.30;;;;;;1560668;74;1180;-59
2021/03/24 07:15:32;;;;;;;;;;;23.90;33.00;;;;;;1534325;76;1003;-59
2021/03/24 07:17:47;;;;;;;;;;;23.90;32.10;;;;;;1558637;74;1031;-59
2021/03/24 07:19:53;;;;;;;;;;;23.90;29.70;;;;;;1546130;74;759;-58
2021/03/24 07:22:15;;;;;;;;;;;23.80;29.40;;;;;;1563119;74;1183;-59
2021/03/24 07:24:35;;;;;;;;;;;23.80;28.80;;;;;;1566866;74;730;-59
2021/03/24 07:26:53;;;;;;;;;;;23.80;29.70;;;;;;1557609;74;803;-58
2021/03/24 07:29:09;;;;;;;;;;;23.90;29.90;;;;;;1558527;74;747;-59
2021/03/24 07:31:30;;;;;;;;;;;24.00;29.80;;;;;;1559892;74;1592;-59
2021/03/24 07:33:46;;;;;;;;;;;24.00;29.50;;;;;;1503250;77;1143;-59
2021/03/24 07:35:49;;;;;;;;;;;24.00;29.30;;;;;;1502303;77;831;-59
2021/03/24 07:37:55;;;;;;;;;;;24.10;29.00;;;;;;1507804;77;1954;-58
2021/03/24 07:40:02;;;;;;;;;;;24.10;28.90;;;;;;1550615;74;853;-59
2021/03/24 07:42:22;;;;;;;;;;;24.20;28.60;;;;;;1557584;74;1195;-59
2021/03/24 07:44:34;;;;;;;;;;;24.20;28.50;;;;;;1559905;74;771;-59
2021/03/24 07:46:54;;;;;;;;;;;24.20;28.40;;;;;;1551008;74;1842;-59
2021/03/24 07:49:15;;;;;;;;;;;24.20;28.10;;;;;;1569797;74;799;-58
2021/03/24 07:51:19;;;;;;;;;;;24.20;27.80;;;;;;1558959;74;740;-59
2021/03/24 07:53:28;;;;;;;;;;;24.20;27.60;;;;;;1565605;74;1174;-56
2021/03/24 07:55:43;;;;;;;;;;;24.20;27.50;;;;;;1552868;74;746;-59
2021/03/24 07:58:02;;;;;;;;;;;24.20;27.60;;;;;;1566753;74;800;-57
2021/03/24 08:00:06;;;;;;;;;;;24.30;27.40;;;;;;1564888;74;736;-56
2021/03/24 08:02:25;;;;;;;;;;;24.20;27.00;;;;;;1566806;74;1561;-59
2021/03/24 08:04:45;;;;;;;;;;;24.30;27.00;;;;;;1571872;74;756;-57
2021/03/24 08:06:58;;;;;;;;;;;24.30;27.00;;;;;;1555949;74;731;-58
2021/03/24 08:09:04;;;;;;;;;;;24.20;26.90;;;;;;1567196;74;1880;-59
2021/03/24 08:11:16;;;;;;;;;;;24.30;27.10;;;;;;1563117;74;1121;-59
2021/03/24 08:13:26;;;;;;;;;;;24.30;26.70;;;;;;1552873;74;1344;-59
2021/03/24 08:15:43;;;;;;;;;;;24.30;26.70;;;;;;1556463;74;773;-59
2021/03/24 08:17:52;;;;;;;;;;;24.30;26.90;;;;;;1558433;74;729;-58
2021/03/24 08:19:59;;;;;;;;;;;24.30;26.90;;;;;;1575445;74;1947;-59
2021/03/24 08:22:17;;;;;;;;;;;24.20;26.70;;;;;;1553463;74;1164;-59
2021/03/24 08:24:39;;;;;;;;;;;24.30;26.80;;;;;;1564433;74;768;-59
2021/03/24 08:26:42;;;;;;;;;;;24.20;26.70;;;;;;1570363;74;718;-60
2021/03/24 08:28:48;;;;;;;;;;;24.20;26.70;;;;;;1570084;74;772;-57
2021/03/24 08:30:52;;;;;;;;;;;24.30;27.00;;;;;;1567759;74;708;-57
2021/03/24 08:33:11;;;;;;;;;;;24.20;26.80;;;;;;1558042;74;1699;-60
2021/03/24 08:35:24;;;;;;;;;;;24.20;26.70;;;;;;1549757;74;792;-59
2021/03/24 08:37:44;;;;;;;;;;;24.30;26.70;;;;;;1553690;74;771;-59
2021/03/24 08:39:47;;;;;;;;;;;24.20;26.90;;;;;;1557923;74;1935;-59
2021/03/24 08:41:51;;;;;;;;;;;24.20;27.00;;;;;;1582538;74;1247;-58
2021/03/24 08:43:57;;;;;;;;;;;24.20;26.90;;;;;;1555595;74;777;-57
2021/03/24 08:46:19;;;;;;;;;;;24.20;26.90;;;;;;1548923;74;749;-57
2021/03/24 08:48:39;;;;;;;;;;;24.20;26.80;;;;;;1551860;74;755;-58
2021/03/24 08:50:42;;;;;;;;;;;24.30;26.80;;;;;;1557426;74;778;-59
2021/03/24 08:52:46;;;;;;;;;;;24.20;27.10;;;;;;1557864;74;1474;-59
2021/03/24 08:54:55;;;;;;;;;;;24.30;27.00;;;;;;1536732;74;1341;-61
2021/03/24 08:57:15;;;;;;;;;;;24.20;27.10;;;;;;1553946;74;1004;-59
2021/03/24 08:59:27;;;;;;;;;;;24.20;26.90;;;;;;1551421;74;1942;-59
2021/03/24 09:01:33;;;;;;;;;;;24.20;26.90;;;;;;1549247;74;754;-57
2021/03/24 09:03:40;;;;;;;;;;;24.20;26.30;;;;;;1554040;74;804;-57
2021/03/24 09:05:46;;;;;;;;;;;24.20;26.90;;;;;;1555476;74;776;-59
2021/03/24 09:07:53;;;;;;;;;;;24.20;26.70;;;;;;1554807;74;1574;-58
2021/03/24 09:10:14;;;;;;;;;;;24.20;26.50;;;;;;1553001;74;1662;-59
2021/03/24 09:12:29;;;;;;;;;;;24.10;25.70;;;;;;1546726;74;1187;-58
2021/03/24 09:14:32;;;;;;;;;;;24.10;26.50;;;;;;1551289;74;799;-57
2021/03/24 09:16:36;;;;;;;;;;;24.00;26.00;;;;;;1551455;74;742;-58
2021/03/24 09:18:39;;;;;;;;;;;24.10;26.00;;;;;;1548750;74;1940;-58
2021/03/24 09:20:59;;;;;;;;;;;24.00;26.20;;;;;;1551829;74;1450;-57
2021/03/24 09:23:02;;;;;;;;;;;24.00;26.40;;;;;;1552584;74;1159;-59
2021/03/24 09:25:21;;;;;;;;;;;24.00;25.90;;;;;;1547756;74;1024;-60
2021/03/24 09:27:27;;;;;;;;;;;24.10;26.10;;;;;;1551077;74;810;-59
2021/03/24 09:29:31;;;;;;;;;;;24.00;25.90;;;;;;1549954;74;752;-59
2021/03/24 09:31:37;;;;;;;;;;;24.00;25.70;;;;;;1564423;74;1158;-60
2021/03/24 09:33:44;;;;;;;;;;;24.00;25.70;;;;;;1562984;74;1590;-60
2021/03/24 09:36:05;;;;;;;;;;;24.00;25.60;;;;;;1559495;74;820;-58
2021/03/24 09:38:08;;;;;;;;;;;24.00;26.00;;;;;;1551535;74;760;-60
2021/03/24 09:40:12;;;;;;;;;;;24.00;26.20;;;;;;1554718;74;1937;-57
2021/03/24 09:42:18;;;;;;;;;;;23.90;25.60;;;;;;1547953;74;1219;-57
2021/03/24 09:44:27;;;;;;;;;;;23.90;25.90;;;;;;1551197;74;776;-59
2021/03/24 09:46:36;;;;;;;;;;;23.90;25.90;;;;;;1562396;74;829;-59
2021/03/24 09:48:43;;;;;;;;;;;24.00;26.30;;;;;;1553708;74;725;-59
2021/03/24 09:50:55;;;;;;;;;;;23.90;26.00;;;;;;1570953;74;759;-59
2021/03/24 09:53:02;;;;;;;;;;;23.90;26.20;;;;;;1564589;74;1123;-57
2021/03/24 09:55:14;;;;;;;;;;;23.90;26.20;;;;;;1563060;74;750;-58
2021/03/24 09:57:17;;;;;;;;;;;23.90;26.20;;;;;;1555857;74;919;-59
2021/03/24 09:59:23;;;;;;;;;;;23.90;26.50;;;;;;1559402;74;1947;-59
2021/03/24 10:01:29;;;;;;;;;;;23.80;26.20;;;;;;1549675;74;1471;-58
2021/03/24 10:03:39;;;;;;;;;;;23.80;25.90;;;;;;1552107;74;1171;-59
2021/03/24 10:05:45;;;;;;;;;;;23.70;26.00;;;;;;1561696;74;762;-59
2021/03/24 10:07:49;;;;;;;;;;;23.80;26.00;;;;;;1558509;74;775;-57
2021/03/24 10:10:04;;;;;;;;;;;23.70;25.90;;;;;;1564208;74;1775;-59
2021/03/24 10:12:08;;;;;;;;;;;23.80;26.40;;;;;;1569026;74;1162;-58
2021/03/24 10:14:11;;;;;;;;;;;23.80;26.40;;;;;;1561403;74;760;-59
2021/03/24 10:16:17;;;;;;;;;;;23.80;26.40;;;;;;1553397;74;795;-56
2021/03/24 10:18:23;;;;;;;;;;;23.70;26.20;;;;;;1556118;74;1047;-58
2021/03/24 10:20:26;;;;;;;;;;;23.60;26.20;;;;;;1548861;74;1943;-57
2021/03/24 10:22:41;;;;;;;;;;;23.70;26.30;;;;;;1558945;74;1162;-57
2021/03/24 10:24:44;;;;;;;;;;;23.60;26.30;;;;;;1561883;74;793;-59
2021/03/24 10:26:49;;;;;;;;;;;23.60;26.30;;;;;;1564294;74;747;-60
2021/03/24 10:28:52;;;;;;;;;;;23.60;26.50;;;;;;1556935;74;1516;-57
2021/03/24 10:30:55;;;;;;;;;;;23.60;26.50;;;;;;1559549;74;763;-55
2021/03/24 10:33:05;;;;;;;;;;;23.60;26.50;;;;;;1560779;74;1701;-59
2021/03/24 10:35:11;;;;;;;;;;;23.50;26.70;;;;;;1571314;74;782;-60
2021/03/24 10:37:18;;;;;;;;;;;23.60;27.00;;;;;;1533230;74;1046;-60
2021/03/24 10:39:26;;;;;;;;;;;23.50;27.10;;;;;;1570440;74;1930;-59
2021/03/24 10:41:32;;;;;;;;;;;23.50;26.10;;;;;;1574901;74;1029;-59
2021/03/24 10:43:34;;;;;;;;;;;23.50;26.10;;;;;;1572407;74;1031;-59
2021/03/24 10:45:37;;;;;;;;;;;23.40;26.50;;;;;;1566398;74;750;-59
2021/03/24 10:47:42;;;;;;;;;;;23.40;26.80;;;;;;1574598;74;729;-58
2021/03/24 10:49:46;;;;;;;;;;;23.40;26.20;;;;;;1573238;74;737;-57
2021/03/24 10:51:49;;;;;;;;;;;23.40;26.80;;;;;;1558798;74;1459;-58
2021/03/24 10:53:51;;;;;;;;;;;23.40;26.60;;;;;;1557449;74;761;-59
2021/03/24 10:56:10;;;;;;;;;;;23.30;26.40;;;;;;1568589;74;1140;-57
2021/03/24 10:58:13;;;;;;;;;;;23.30;26.80;;;;;;1570368;74;746;-59
2021/03/24 11:00:26;;;;;;;;;;;23.30;26.80;;;;;;1576078;74;1933;-58
2021/03/24 11:02:29;;;;;;;;;;;23.30;27.40;;;;;;1566715;74;1187;-59
2021/03/24 11:04:49;;;;;;;;;;;23.20;27.10;;;;;;1568143;74;754;-57
2021/03/24 11:07:01;;;;;;;;;;;23.30;27.30;;;;;;1557442;74;795;-59
2021/03/24 11:09:04;;;;;;;;;;;23.30;27.30;;;;;;1557685;74;776;-58
2021/03/24 11:11:11;;;;;;;;;;;23.20;27.20;;;;;;1569493;74;713;-58
2021/03/24 11:13:20;;;;;;;;;;;23.20;27.70;;;;;;1558682;74;1171;-55
2021/03/24 11:15:23;;;;;;;;;;;23.10;27.80;;;;;;1563273;74;731;-56
2021/03/24 11:17:25;;;;;;;;;;;23.10;27.40;;;;;;1560630;74;738;-56
2021/03/24 11:19:29;;;;;;;;;;;23.10;27.40;;;;;;1576490;74;1937;-59
2021/03/24 11:21:38;;;;;;;;;;;23.20;27.90;;;;;;1562256;74;822;-57
2021/03/24 11:23:43;;;;;;;;;;;23.10;27.80;;;;;;1567695;74;729;-59
2021/03/24 11:25:56;;;;;;;;;;;23.10;27.30;;;;;;1579032;74;744;-58
2021/03/24 11:28:03;;;;;;;;;;;23.10;27.90;;;;;;1570797;74;740;-59
2021/03/24 11:30:07;;;;;;;;;;;23.10;27.60;;;;;;1566501;74;733;-57
2021/03/24 11:32:19;;;;;;;;;;;23.00;27.30;;;;;;1560968;74;1169;-60
2021/03/24 11:34:22;;;;;;;;;;;23.00;27.20;;;;;;1554347;74;757;-59
2021/03/24 11:36:26;;;;;;;;;;;23.10;27.80;;;;;;1544494;74;1049;-59
2021/03/24 11:38:35;;;;;;;;;;;23.00;27.40;;;;;;1556493;74;1404;-58
2021/03/24 11:40:38;;;;;;;;;;;23.00;27.40;;;;;;1558918;74;1959;-59
2021/03/24 11:42:40;;;;;;;;;;;23.00;27.50;;;;;;1557992;74;1231;-56
2021/03/24 11:44:42;;;;;;;;;;;23.00;27.50;;;;;;1552858;75;1146;-58
2021/03/24 11:46:46;;;;;;;;;;;23.00;27.60;;;;;;1561233;74;797;-58
2021/03/24 11:49:06;;;;;;;;;;;23.00;27.60;;;;;;1555528;74;845;-58
2021/03/24 11:51:19;;;;;;;;;;;23.00;27.30;;;;;;1552591;74;772;-56
2021/03/24 11:53:39;;;;;;;;;;;23.00;27.30;;;;;;1558120;74;1195;-57
2021/03/24 11:55:45;;;;;;;;;;;23.00;27.30;;;;;;1556810;74;797;-59
2021/03/24 11:57:52;;;;;;;;;;;23.00;27.10;;;;;;1558152;74;1167;-59
2021/03/24 12:00:04;;;;;;;;;;;23.00;27.20;;;;;;1560977;74;1932;-59
2021/03/24 12:02:07;;;;;;;;;;;22.90;27.20;;;;;;1554148;74;1175;-58
2021/03/24 12:04:13;;;;;;;;;;;22.90;27.30;;;;;;1566320;74;747;-59
2021/03/24 12:06:23;;;;;;;;;;;22.90;27.20;;;;;;1555380;74;1555;-58
2021/03/24 12:08:32;;;;;;;;;;;22.90;27.10;;;;;;1561627;74;781;-59
2021/03/24 12:10:36;;;;;;;;;;;22.90;27.10;;;;;;1573527;74;714;-59
2021/03/24 12:12:38;;;;;;;;;;;22.90;27.40;;;;;;1555652;74;1162;-58
2021/03/24 12:14:41;;;;;;;;;;;22.90;27.60;;;;;;1558146;74;627;-59
2021/03/24 12:16:47;;;;;;;;;;;22.90;27.60;;;;;;1553393;74;757;-59
2021/03/24 12:18:49;;;;;;;;;;;22.80;27.40;;;;;;1552988;74;722;-59
2021/03/24 12:20:53;;;;;;;;;;;22.80;27.50;;;;;;1560642;74;1942;-58
2021/03/24 12:22:55;;;;;;;;;;;22.80;27.40;;;;;;1562122;74;1178;-58
2021/03/24 12:25:15;;;;;;;;;;;22.80;27.30;;;;;;1554867;74;755;-57
2021/03/24 12:27:20;;;;;;;;;;;22.80;27.30;;;;;;1554939;74;744;-57
2021/03/24 12:29:23;;;;;;;;;;;22.80;27.30;;;;;;1551283;74;819;-58
2021/03/24 12:31:25;;;;;;;;;;;22.80;27.40;;;;;;1561812;74;734;-56
2021/03/24 12:33:27;;;;;;;;;;;22.70;27.10;;;;;;1559627;74;1091;-58